createdAt,value
2022-11-16T00:02:07.380Z,0.85
2022-11-16T00:04:34.086Z,0.80
2022-11-16T00:07:02.771Z,1.08
2022-11-16T00:09:32.402Z,1.00
2022-11-16T00:12:02.141Z,1.30
2022-11-16T00:14:34.616Z,1.33
2022-11-16T00:17:01.574Z,0.90
2022-11-16T00:19:28.824Z,0.90
2022-11-16T00:21:55.844Z,0.93
2022-11-16T00:24:23.558Z,0.90
2022-11-16T00:26:50.269Z,0.82
2022-11-16T00:29:19.434Z,1.00
2022-11-16T00:31:47.213Z,1.08
2022-11-16T00:34:14.311Z,1.27
2022-11-16T00:36:40.901Z,1.23
2022-11-16T00:39:07.579Z,0.88
2022-11-16T00:41:34.158Z,1.02
2022-11-16T00:44:00.707Z,0.77
2022-11-16T00:46:27.488Z,0.90
2022-11-16T00:48:54.274Z,0.88
2022-11-16T00:51:20.884Z,1.02
2022-11-16T00:53:47.522Z,0.75
2022-11-16T00:56:14.092Z,1.20
2022-11-16T00:58:43.548Z,1.27
2022-11-16T01:01:11.755Z,1.05
2022-11-16T01:03:38.918Z,1.35
2022-11-16T01:06:08.725Z,1.00
2022-11-16T01:08:38.279Z,1.17
2022-11-16T01:11:24.497Z,1.10
2022-11-16T01:13:51.441Z,0.80
2022-11-16T01:16:19.975Z,1.00
2022-11-16T01:18:51.817Z,1.48
2022-11-16T01:21:19.156Z,1.35
2022-11-16T01:23:45.866Z,1.15
2022-11-16T01:26:12.591Z,1.23
2022-11-16T01:28:41.357Z,1.38
2022-11-16T01:31:10.171Z,1.02
2022-11-16T01:33:38.010Z,0.88
2022-11-16T01:36:14.557Z,1.10
2022-11-16T01:38:45.897Z,1.40
2022-11-16T01:41:16.337Z,1.13
2022-11-16T01:44:01.566Z,1.08
2022-11-16T01:46:34.443Z,1.50
2022-11-16T01:49:23.905Z,0.98
2022-11-16T01:52:01.133Z,0.90
2022-11-16T01:54:30.888Z,1.00
2022-11-16T01:57:03.037Z,0.80
2022-11-16T01:59:46.116Z,0.93
2022-11-16T02:02:16.625Z,0.90
2022-11-16T02:04:46.071Z,1.00
2022-11-16T02:07:30.330Z,1.00
2022-11-16T02:10:05.616Z,1.40
2022-11-16T02:12:38.086Z,0.90
2022-11-16T02:15:14.549Z,1.13
2022-11-16T02:18:00.009Z,0.63
2022-11-16T02:20:44.327Z,1.00
2022-11-16T02:23:44.571Z,1.13
2022-11-16T02:26:36.086Z,0.82
2022-11-16T02:29:09.647Z,1.13
2022-11-16T02:31:50.479Z,1.00
2022-11-16T02:34:19.763Z,1.10
2022-11-16T02:36:51.941Z,1.35
2022-11-16T02:39:21.512Z,0.90
2022-11-16T02:41:51.844Z,1.15
2022-11-16T02:44:32.560Z,0.90
2022-11-16T02:47:04.965Z,1.02
2022-11-16T02:49:34.712Z,1.10
2022-11-16T02:52:04.780Z,1.20
2022-11-16T02:54:31.435Z,1.25
2022-11-16T02:57:25.368Z,1.05
2022-11-16T02:59:55.428Z,1.17
2022-11-16T03:03:06.577Z,0.88
2022-11-16T03:06:01.180Z,1.10
2022-11-16T03:08:37.490Z,1.13
2022-11-16T03:11:27.286Z,1.00
2022-11-16T03:14:00.335Z,1.17
2022-11-16T03:16:31.268Z,1.10
2022-11-16T03:19:00.775Z,1.20
2022-11-16T03:21:53.558Z,1.02
2022-11-16T03:24:20.513Z,1.42
2022-11-16T03:27:05.465Z,0.80
2022-11-16T03:29:36.497Z,1.15
2022-11-16T03:32:18.937Z,0.90
2022-11-16T03:34:54.656Z,1.73
2022-11-16T03:37:24.871Z,1.25
2022-11-16T03:39:53.670Z,0.95
2022-11-16T03:42:22.951Z,1.20
2022-11-16T03:44:50.216Z,0.95
2022-11-16T03:47:16.745Z,1.35
2022-11-16T03:49:47.588Z,1.17
2022-11-16T03:52:17.637Z,0.83
2022-11-16T03:54:44.596Z,2.13
2022-11-16T03:57:18.181Z,1.20
2022-11-16T03:59:49.749Z,1.20
2022-11-16T04:02:16.274Z,1.23
2022-11-16T04:05:09.345Z,1.73
2022-11-16T04:07:55.128Z,1.23
2022-11-16T04:10:40.884Z,1.20
2022-11-16T04:13:30.853Z,1.10
2022-11-16T04:16:16.150Z,1.40
2022-11-16T04:19:03.104Z,1.35
2022-11-16T04:21:56.827Z,0.77
2022-11-16T04:24:30.367Z,1.38
2022-11-16T04:27:24.059Z,1.48
2022-11-16T04:29:50.789Z,1.73
2022-11-16T04:32:36.790Z,0.90
2022-11-16T04:35:21.977Z,1.10
2022-11-16T04:37:48.623Z,1.65
2022-11-16T04:40:29.576Z,1.38
2022-11-16T04:43:00.138Z,0.93
2022-11-16T04:45:48.394Z,1.08
2022-11-16T04:48:19.567Z,0.85
2022-11-16T04:50:48.377Z,1.15
2022-11-16T04:53:16.046Z,0.80
2022-11-16T04:55:51.101Z,1.05
2022-11-16T04:58:19.653Z,1.50
2022-11-16T05:00:47.257Z,1.42
2022-11-16T05:03:14.442Z,1.00
2022-11-16T05:05:41.419Z,1.13
2022-11-16T05:08:09.327Z,1.08
2022-11-16T05:10:37.021Z,1.02
2022-11-16T05:13:03.696Z,1.00
2022-11-16T05:15:30.260Z,1.00
2022-11-16T05:17:58.321Z,1.38
2022-11-16T05:20:44.500Z,0.73
2022-11-16T05:23:31.556Z,0.80
2022-11-16T05:26:03.411Z,1.02
2022-11-16T05:28:30.009Z,1.20
2022-11-16T05:30:57.263Z,1.02
2022-11-16T05:33:26.031Z,0.90
2022-11-16T05:35:52.925Z,1.38
2022-11-16T05:38:20.882Z,1.33
2022-11-16T05:40:51.630Z,0.90
2022-11-16T05:43:18.391Z,1.15
2022-11-16T05:45:54.636Z,0.65
2022-11-16T05:48:21.710Z,1.38
2022-11-16T05:50:48.720Z,0.90
2022-11-16T05:53:22.220Z,0.85
2022-11-16T05:55:48.970Z,1.20
2022-11-16T05:58:16.329Z,0.80
2022-11-16T06:00:43.016Z,1.05
2022-11-16T06:03:11.401Z,0.65
2022-11-16T06:05:40.603Z,0.85
2022-11-16T06:08:08.842Z,0.68
2022-11-16T06:10:37.050Z,0.95
2022-11-16T06:13:04.640Z,1.25
2022-11-16T06:15:31.456Z,0.90
2022-11-16T06:17:58.757Z,0.77
2022-11-16T06:20:25.320Z,1.02
2022-11-16T06:22:53.257Z,0.70
2022-11-16T06:25:20.520Z,0.80
2022-11-16T06:27:47.091Z,0.80
2022-11-16T06:30:16.393Z,0.90
2022-11-16T06:32:44.682Z,1.00
2022-11-16T06:35:11.426Z,1.00
2022-11-16T06:37:39.156Z,0.77
2022-11-16T06:40:07.232Z,0.90
2022-11-16T06:42:39.300Z,0.90
2022-11-16T06:45:06.600Z,0.45
2022-11-16T06:47:38.636Z,0.88
2022-11-16T06:50:05.617Z,1.13
2022-11-16T06:52:33.569Z,0.88
2022-11-16T06:55:00.163Z,0.60
2022-11-16T06:57:30.053Z,0.77
2022-11-16T07:00:01.589Z,0.70
2022-11-16T07:02:28.330Z,1.15
2022-11-16T07:05:00.587Z,0.60
2022-11-16T07:07:29.918Z,0.70
2022-11-16T07:09:57.009Z,1.00
2022-11-16T07:12:25.207Z,1.02
2022-11-16T07:14:51.902Z,0.85
2022-11-16T07:17:19.576Z,0.77
2022-11-16T07:19:46.351Z,0.55
2022-11-16T07:22:13.140Z,0.90
2022-11-16T07:24:39.881Z,0.80
2022-11-16T07:27:08.637Z,0.73
2022-11-16T07:29:38.076Z,0.68
2022-11-16T07:32:23.326Z,0.77
2022-11-16T07:36:04.978Z,0.60
2022-11-16T07:40:03.863Z,0.82
2022-11-16T07:43:51.484Z,0.32
2022-11-16T07:47:34.138Z,0.93
2022-11-16T07:50:19.703Z,0.40
2022-11-16T07:52:46.594Z,0.88
2022-11-16T07:55:19.651Z,0.55
2022-11-16T07:57:53.082Z,0.65
2022-11-16T08:00:20.497Z,0.40
2022-11-16T08:02:56.944Z,0.80
2022-11-16T08:05:23.481Z,0.60
2022-11-16T08:07:50.993Z,0.50
2022-11-16T08:10:21.554Z,0.88
2022-11-16T08:12:48.168Z,0.50
2022-11-16T08:15:17.282Z,0.85
2022-11-16T08:17:43.893Z,0.70
2022-11-16T08:20:12.445Z,0.50
2022-11-16T08:22:39.638Z,0.68
2022-11-16T08:25:07.645Z,0.50
2022-11-16T08:27:34.424Z,0.63
2022-11-16T08:30:03.199Z,0.40
2022-11-16T08:32:30.758Z,1.00
2022-11-16T08:34:57.496Z,0.40
2022-11-16T08:37:25.961Z,0.30
2022-11-16T08:39:52.656Z,0.45
2022-11-16T08:42:19.777Z,0.52
2022-11-16T08:44:48.571Z,0.50
2022-11-16T08:47:17.924Z,0.30
2022-11-16T08:49:51.460Z,0.43
2022-11-16T08:52:19.977Z,0.88
2022-11-16T08:54:48.369Z,0.43
2022-11-16T08:57:16.427Z,0.38
2022-11-16T08:59:44.384Z,0.40
2022-11-16T09:02:13.419Z,0.30
2022-11-16T09:04:39.998Z,0.50
2022-11-16T09:07:06.580Z,0.60
2022-11-16T09:09:33.358Z,0.47
2022-11-16T09:11:59.856Z,0.50
2022-11-16T09:14:28.900Z,0.30
2022-11-16T09:16:55.609Z,0.20
2022-11-16T09:19:22.688Z,0.55
2022-11-16T09:21:50.344Z,0.20
2022-11-16T09:24:17.584Z,0.50
2022-11-16T09:26:44.217Z,0.30
2022-11-16T09:29:15.633Z,0.65
2022-11-16T09:31:43.352Z,0.25
2022-11-16T09:34:09.961Z,0.30
2022-11-16T09:36:36.699Z,0.20
2022-11-16T09:39:30.752Z,0.20
2022-11-16T09:42:15.506Z,0.30
2022-11-16T09:45:00.582Z,0.35
2022-11-16T09:47:56.232Z,0.30
2022-11-16T09:50:40.885Z,0.30
2022-11-16T09:53:22.554Z,0.40
2022-11-16T09:55:55.050Z,0.52
2022-11-16T09:58:34.402Z,0.38
2022-11-16T10:01:16.648Z,0.30
2022-11-16T10:03:49.081Z,0.30
2022-11-16T10:06:27.622Z,0.57
2022-11-16T10:08:56.794Z,0.38
2022-11-16T10:11:29.623Z,0.40
2022-11-16T10:14:00.096Z,0.47
2022-11-16T10:16:44.768Z,0.30
2022-11-16T10:19:39.055Z,0.68
2022-11-16T10:22:46.072Z,0.28
2022-11-16T10:25:24.294Z,0.50
2022-11-16T10:27:51.091Z,0.30
2022-11-16T10:30:20.244Z,0.30
2022-11-16T10:33:06.675Z,0.30
2022-11-16T10:35:41.323Z,0.40
2022-11-16T10:38:17.167Z,0.43
2022-11-16T10:40:49.540Z,0.30
2022-11-16T10:43:23.754Z,0.50
2022-11-16T10:46:25.883Z,0.20
2022-11-16T10:49:11.438Z,0.32
2022-11-16T10:51:38.031Z,0.52
2022-11-16T10:54:18.288Z,0.43
2022-11-16T10:56:48.631Z,0.43
2022-11-16T10:59:21.596Z,0.43
2022-11-16T11:01:57.745Z,0.73
2022-11-16T11:04:27.114Z,0.47
2022-11-16T11:07:02.388Z,0.50
2022-11-16T11:09:36.448Z,0.30
2022-11-16T11:12:34.608Z,0.40
2022-11-16T11:15:26.470Z,0.38
2022-11-16T11:18:15.173Z,0.57
2022-11-16T11:20:45.516Z,0.47
2022-11-16T11:23:21.665Z,0.50
2022-11-16T11:25:57.258Z,0.50
2022-11-16T11:28:38.333Z,1.15
2022-11-16T11:31:11.496Z,0.22
2022-11-16T11:33:42.468Z,0.63
2022-11-16T11:36:18.606Z,0.32
2022-11-16T11:38:57.548Z,0.50
2022-11-16T11:41:24.263Z,0.30
2022-11-16T11:44:12.762Z,0.43
2022-11-16T11:47:35.217Z,0.43
2022-11-16T11:49:39.447Z,0.50
2022-11-16T11:54:49.267Z,0.50
2022-11-16T11:57:21.971Z,0.30
2022-11-16T11:59:52.254Z,0.60
2022-11-16T12:02:30.997Z,0.30
2022-11-16T12:05:29.039Z,0.50
2022-11-16T12:08:14.595Z,0.40
2022-11-16T12:11:00.399Z,0.45
2022-11-16T12:13:45.581Z,0.50
2022-11-16T12:16:32.401Z,0.55
2022-11-16T12:18:58.864Z,0.60
2022-11-16T12:21:43.627Z,0.28
2022-11-16T12:24:32.142Z,0.55
2022-11-16T12:27:34.112Z,0.50
2022-11-16T12:30:10.971Z,0.30
2022-11-16T12:32:52.010Z,0.30
2022-11-16T12:35:33.648Z,0.47
2022-11-16T12:38:37.959Z,0.40
2022-11-16T12:41:21.924Z,0.40
2022-11-16T12:43:59.765Z,0.50
2022-11-16T12:46:50.609Z,0.35
2022-11-16T12:49:45.129Z,0.35
2022-11-16T12:55:26.843Z,0.40
2022-11-16T12:58:15.115Z,0.60
2022-11-16T13:00:59.778Z,0.63
2022-11-16T13:03:47.406Z,1.50
2022-11-16T13:06:19.625Z,0.60
2022-11-16T13:08:57.001Z,0.30
2022-11-16T13:11:27.934Z,0.60
2022-11-16T13:14:01.464Z,0.50
2022-11-16T13:16:29.197Z,0.40
2022-11-16T13:18:56.931Z,0.73
2022-11-16T13:21:50.946Z,0.40
2022-11-16T13:24:34.822Z,0.47
2022-11-16T13:27:26.870Z,0.50
2022-11-16T13:30:05.079Z,0.50
2022-11-16T13:32:54.973Z,0.50
2022-11-16T13:35:22.973Z,0.75
2022-11-16T13:37:51.914Z,0.30
2022-11-16T13:40:27.644Z,0.40
2022-11-16T13:43:08.245Z,0.40
2022-11-16T13:45:49.994Z,0.40
2022-11-16T13:48:32.561Z,0.50
2022-11-16T13:51:18.412Z,0.20
2022-11-16T13:56:49.467Z,0.10
2022-11-16T13:59:16.576Z,0.40
2022-11-16T14:02:06.198Z,0.22
2022-11-16T14:04:35.713Z,0.30
2022-11-16T14:07:02.368Z,0.40
2022-11-16T14:09:49.151Z,0.35
2022-11-16T14:12:38.010Z,0.22
2022-11-16T14:15:13.550Z,0.20
2022-11-16T14:17:49.255Z,0.20
2022-11-16T14:20:28.167Z,0.30
2022-11-16T14:23:15.899Z,0.30
2022-11-16T14:25:59.096Z,0.20
2022-11-16T14:28:44.440Z,0.15
2022-11-16T14:31:30.071Z,0.15
2022-11-16T14:33:58.879Z,0.40
2022-11-16T14:36:38.748Z,0.22
2022-11-16T14:39:14.496Z,0.28
2022-11-16T14:41:44.970Z,0.30
2022-11-16T14:44:12.203Z,0.30
2022-11-16T14:46:38.951Z,0.30
2022-11-16T14:49:16.138Z,0.40
2022-11-16T14:51:54.916Z,0.40
2022-11-16T14:54:35.073Z,0.47
2022-11-16T14:57:07.726Z,0.77
2022-11-16T14:59:34.329Z,0.45
2022-11-16T15:02:25.209Z,0.52
2022-11-16T15:04:53.187Z,0.20
2022-11-16T15:07:23.038Z,0.20
2022-11-16T15:09:54.351Z,0.15
2022-11-16T15:12:43.273Z,0.30
2022-11-16T15:15:18.162Z,0.20
2022-11-16T15:17:51.584Z,0.50
2022-11-16T15:20:19.941Z,0.20
2022-11-16T15:22:54.689Z,0.40
2022-11-16T15:25:41.314Z,0.43
2022-11-16T15:28:24.801Z,0.50
2022-11-16T15:31:13.602Z,0.30
2022-11-16T15:33:43.123Z,0.30
2022-11-16T15:36:41.991Z,0.30
2022-11-16T15:39:19.633Z,0.30
2022-11-16T15:41:46.767Z,0.22
2022-11-16T15:44:16.227Z,0.40
2022-11-16T15:46:47.006Z,0.63
2022-11-16T15:49:24.975Z,0.45
2022-11-16T15:51:51.566Z,0.65
2022-11-16T15:54:24.556Z,0.45
2022-11-16T15:56:55.916Z,0.40
2022-11-16T15:59:28.226Z,0.50
2022-11-16T16:01:55.386Z,0.70
2022-11-16T16:04:22.984Z,0.40
2022-11-16T16:06:58.044Z,0.43
2022-11-16T16:09:30.883Z,0.55
2022-11-16T16:12:22.539Z,0.50
2022-11-16T16:14:50.965Z,0.50
2022-11-16T16:17:30.748Z,0.43
2022-11-16T16:20:03.087Z,1.42
2022-11-16T16:22:38.699Z,0.75
2022-11-16T16:25:07.166Z,0.40
2022-11-16T16:27:40.045Z,0.75
2022-11-16T16:30:07.767Z,0.50
2022-11-16T16:32:37.004Z,0.50
2022-11-16T16:35:06.422Z,0.52
2022-11-16T16:37:35.643Z,0.65
2022-11-16T16:40:02.734Z,1.05
2022-11-16T16:42:29.273Z,0.82
2022-11-16T16:44:59.124Z,0.60
2022-11-16T16:47:25.797Z,0.45
2022-11-16T16:49:52.319Z,0.55
2022-11-16T16:52:18.865Z,0.80
2022-11-16T16:54:45.524Z,0.70
2022-11-16T16:57:16.826Z,1.00
2022-11-16T16:59:48.349Z,0.70
2022-11-16T17:02:16.496Z,0.93
2022-11-16T17:04:44.030Z,0.95
2022-11-16T17:07:10.788Z,0.77
2022-11-16T17:09:37.398Z,1.15
2022-11-16T17:12:04.095Z,0.75
2022-11-16T17:14:30.612Z,0.75
2022-11-16T17:16:57.210Z,0.40
2022-11-16T17:19:23.724Z,0.73
2022-11-16T17:21:51.877Z,0.98
2022-11-16T17:24:18.513Z,0.90
2022-11-16T17:26:48.242Z,0.82
2022-11-16T17:29:15.395Z,0.77
2022-11-16T17:31:44.041Z,0.70
2022-11-16T17:34:13.820Z,0.60
2022-11-16T17:36:41.475Z,1.08
2022-11-16T17:39:08.262Z,1.27
2022-11-16T17:41:34.999Z,1.10
2022-11-16T17:44:01.561Z,1.40
2022-11-16T17:46:28.985Z,1.77
2022-11-16T17:48:56.029Z,1.63
2022-11-16T17:51:24.997Z,1.55
2022-11-16T17:53:52.250Z,1.60
2022-11-16T17:56:22.054Z,1.80
2022-11-16T17:58:52.199Z,1.90
2022-11-16T18:01:19.155Z,1.80
2022-11-16T18:03:45.810Z,2.00
2022-11-16T18:06:15.495Z,1.30
2022-11-16T18:08:43.555Z,1.60
2022-11-16T18:11:21.917Z,1.77
2022-11-16T18:13:55.790Z,1.10
2022-11-16T18:16:24.709Z,1.73
2022-11-16T18:19:03.039Z,1.10
2022-11-16T18:21:29.909Z,0.95
2022-11-16T18:23:59.298Z,0.68
2022-11-16T18:26:26.086Z,0.88
2022-11-16T18:28:52.742Z,1.23
2022-11-16T18:31:21.807Z,0.85
2022-11-16T18:33:49.248Z,1.08
2022-11-16T18:36:16.969Z,0.95
2022-11-16T18:38:43.548Z,0.93
2022-11-16T18:41:12.966Z,1.00
2022-11-16T18:43:40.756Z,1.13
2022-11-16T18:46:07.997Z,1.02
2022-11-16T18:48:34.712Z,1.25
2022-11-16T18:51:03.378Z,0.70
2022-11-16T18:53:32.099Z,0.57
2022-11-16T18:55:58.922Z,1.00
2022-11-16T19:01:16.850Z,0.60
2022-11-16T19:03:43.549Z,1.00
2022-11-16T19:06:10.829Z,1.08
2022-11-16T19:08:39.008Z,0.98
2022-11-16T19:11:14.521Z,0.98
2022-11-16T19:13:42.743Z,0.60
2022-11-16T19:16:11.381Z,0.75
2022-11-16T19:18:38.306Z,1.38
2022-11-16T19:21:05.691Z,1.10
2022-11-16T19:23:42.885Z,1.10
2022-11-16T19:26:12.172Z,1.00
2022-11-16T19:28:40.420Z,0.90
2022-11-16T19:31:07.916Z,0.73
2022-11-16T19:33:34.926Z,0.70
2022-11-16T19:36:12.092Z,0.80
2022-11-16T19:38:39.155Z,0.52
2022-11-16T19:41:07.252Z,0.80
2022-11-16T19:43:34.678Z,0.70
2022-11-16T19:46:06.806Z,1.40
2022-11-16T19:48:33.644Z,0.80
2022-11-16T19:51:33.498Z,1.08
2022-11-16T19:54:01.318Z,0.80
2022-11-16T19:56:28.375Z,0.90
2022-11-16T19:58:54.916Z,0.98
2022-11-16T20:01:27.852Z,1.05
2022-11-16T20:03:57.452Z,0.47
2022-11-16T20:06:30.459Z,0.90
2022-11-16T20:09:00.502Z,1.00
2022-11-16T20:11:28.996Z,0.70
2022-11-16T20:13:56.786Z,0.80
2022-11-16T20:16:25.940Z,1.10
2022-11-16T20:18:53.270Z,1.00
2022-11-16T20:21:24.093Z,1.38
2022-11-16T20:23:54.028Z,0.80
2022-11-16T20:26:21.695Z,0.93
2022-11-16T20:28:51.012Z,0.70
2022-11-16T20:31:20.524Z,1.25
2022-11-16T20:34:01.485Z,0.73
2022-11-16T20:36:29.617Z,1.10
2022-11-16T20:38:57.297Z,0.70
2022-11-16T20:41:25.824Z,0.70
2022-11-16T20:43:54.731Z,0.80
2022-11-16T20:46:23.806Z,0.40
2022-11-16T20:48:50.441Z,0.40
2022-11-16T20:51:18.972Z,0.52
2022-11-16T20:53:47.525Z,0.55
2022-11-16T20:56:15.427Z,0.40
2022-11-16T20:58:42.319Z,0.50
2022-11-16T21:01:15.927Z,0.50
2022-11-16T21:03:44.394Z,0.50
2022-11-16T21:06:12.964Z,0.88
2022-11-16T21:08:40.217Z,0.50
2022-11-16T21:11:11.476Z,0.70
2022-11-16T21:13:56.457Z,1.00
2022-11-16T21:16:23.244Z,0.70
2022-11-16T21:18:49.770Z,0.73
2022-11-16T21:21:16.324Z,0.70
2022-11-16T21:23:47.097Z,0.50
2022-11-16T21:26:15.128Z,0.68
2022-11-16T21:28:44.565Z,0.40
2022-11-16T21:31:18.308Z,0.57
2022-11-16T21:33:45.847Z,0.80
2022-11-16T21:36:15.189Z,0.60
2022-11-16T21:38:42.161Z,0.88
2022-11-16T21:41:10.640Z,0.63
2022-11-16T21:43:37.648Z,0.63
2022-11-16T21:46:06.821Z,0.50
2022-11-16T21:48:34.647Z,0.90
2022-11-16T21:51:03.138Z,0.40
2022-11-16T21:53:30.491Z,0.75
2022-11-16T21:55:57.620Z,0.50
2022-11-16T21:58:24.286Z,0.90
2022-11-16T22:00:55.221Z,0.77
2022-11-16T22:03:23.488Z,0.80
2022-11-16T22:06:12.609Z,0.50
2022-11-16T22:08:39.912Z,0.60
2022-11-16T22:11:08.000Z,0.70
2022-11-16T22:13:36.010Z,0.82
2022-11-16T22:16:11.023Z,0.40
2022-11-16T22:18:38.397Z,0.30
2022-11-16T22:21:05.853Z,0.73
2022-11-16T22:23:33.055Z,0.65
2022-11-16T22:26:04.497Z,0.57
2022-11-16T22:28:32.540Z,0.47
2022-11-16T22:31:20.197Z,0.50
2022-11-16T22:33:51.716Z,0.50
2022-11-16T22:36:18.197Z,0.70
2022-11-16T22:38:44.783Z,0.25
2022-11-16T22:41:11.299Z,0.32
2022-11-16T22:43:38.930Z,0.60
2022-11-16T22:46:06.111Z,0.30
2022-11-16T22:48:35.124Z,0.85
2022-11-16T22:51:21.895Z,0.22
2022-11-16T22:53:53.790Z,0.50
2022-11-16T22:56:20.485Z,0.32
2022-11-16T22:58:47.002Z,0.68
2022-11-16T23:01:13.647Z,0.30
2022-11-16T23:03:40.479Z,0.30
2022-11-16T23:06:07.905Z,0.35
2022-11-16T23:08:35.217Z,0.30
2022-11-16T23:11:27.556Z,0.25
2022-11-16T23:14:13.286Z,0.30
2022-11-16T23:16:41.028Z,0.40
2022-11-16T23:19:28.276Z,0.40
2022-11-16T23:22:16.705Z,0.57
2022-11-16T23:25:02.524Z,0.43
2022-11-16T23:27:43.189Z,0.40
2022-11-16T23:30:13.142Z,0.45
2022-11-16T23:32:41.231Z,0.40
2022-11-16T23:35:08.575Z,0.20
2022-11-16T23:37:35.232Z,0.45
2022-11-16T23:40:01.736Z,0.30
2022-11-16T23:42:46.823Z,0.40
2022-11-16T23:45:13.386Z,0.38
2022-11-16T23:47:39.900Z,0.28
2022-11-16T23:50:06.645Z,0.30
2022-11-16T23:52:33.197Z,0.30
2022-11-16T23:54:59.709Z,0.38
2022-11-16T23:57:26.224Z,0.35
2022-11-16T23:59:52.759Z,0.30
